Time;durP1;ratioP1;P1;durP2;ratioP2;P2;SDS_P1;SDS_P2;PMS_P1;PMS_P2;Temp;Humidity;BMP_temperature;BMP_pressure;BME280_temperature;BME280_humidity;BME280_pressure;Samples;Min_cycle;Max_cycle;Signal;HPM_P1;HPM_P2
2023/08/20 00:01:56;;;;;;;37.65;31.05;;;17.50;92.20;;;;;;5097259;28;20194;-91
2023/08/20 00:04:25;;;;;;;37.15;32.75;;;17.40;92.10;;;;;;5096964;28;20678;-92
2023/08/20 00:06:51;;;;;;;38.45;32.17;;;17.40;92.40;;;;;;5097252;28;20170;-90
2023/08/20 00:09:16;;;;;;;37.33;32.67;;;17.30;92.50;;;;;;5095862;28;20209;-90
2023/08/20 00:11:42;;;;;;;35.00;31.50;;;17.30;92.70;;;;;;5094605;28;20769;-90
2023/08/20 00:14:14;;;;;;;37.20;33.20;;;17.20;92.80;;;;;;5095797;28;20526;-90
2023/08/20 00:16:40;;;;;;;35.45;31.75;;;17.20;93.00;;;;;;5094630;28;20178;-90
2023/08/20 00:19:06;;;;;;;34.90;31.17;;;17.20;93.20;;;;;;5095701;28;20202;-90
2023/08/20 00:21:32;;;;;;;33.47;30.02;;;17.30;93.10;;;;;;5094211;28;20567;-90
2023/08/20 00:23:58;;;;;;;31.98;29.23;;;17.30;93.10;;;;;;5094177;28;20171;-90
2023/08/20 00:26:24;;;;;;;31.70;28.85;;;17.30;93.00;;;;;;5094583;28;20194;-90
2023/08/20 00:28:49;;;;;;;33.05;28.27;;;17.20;93.00;;;;;;5095638;28;20235;-90
2023/08/20 00:31:15;;;;;;;32.55;29.42;;;17.20;92.90;;;;;;5094315;28;20178;-90
2023/08/20 00:33:40;;;;;;;34.38;29.65;;;17.10;92.80;;;;;;5094705;28;20220;-90
2023/08/20 00:36:06;;;;;;;36.63;31.33;;;17.10;92.90;;;;;;5095209;28;20194;-90
2023/08/20 00:38:31;;;;;;;31.85;29.25;;;17.20;93.10;;;;;;5094728;28;20200;-90
2023/08/20 00:40:57;;;;;;;29.23;26.23;;;17.10;93.10;;;;;;5094066;28;20209;-90
2023/08/20 00:43:22;;;;;;;26.40;24.00;;;17.20;93.20;;;;;;5094167;28;20182;-90
2023/08/20 00:45:48;;;;;;;30.27;25.52;;;17.20;93.20;;;;;;5093576;28;20212;-90
2023/08/20 00:48:15;;;;;;;;;;;17.10;93.00;;;;;;5095447;28;20198;-90
2023/08/20 00:50:41;;;;;;;24.42;22.25;;;17.00;93.00;;;;;;5095387;28;20183;-90
2023/08/20 00:53:09;;;;;;;24.65;22.63;;;17.00;92.90;;;;;;5095811;28;20630;-91
2023/08/20 00:55:36;;;;;;;26.15;23.77;;;17.00;92.90;;;;;;5094025;28;20227;-90
2023/08/20 00:58:02;;;;;;;25.73;23.60;;;16.90;92.80;;;;;;5095791;28;20185;-90
2023/08/20 01:00:27;;;;;;;25.00;23.08;;;16.90;92.70;;;;;;5096030;28;20199;-90
2023/08/20 01:02:53;;;;;;;25.92;23.92;;;16.80;92.60;;;;;;5094320;28;20257;-90
2023/08/20 01:05:19;;;;;;;27.20;24.60;;;16.80;92.50;;;;;;5096293;28;20248;-90
2023/08/20 01:07:50;;;;;;;29.38;26.15;;;16.80;92.40;;;;;;5095017;28;20179;-90
2023/08/20 01:10:16;;;;;;;84.15;28.10;;;16.70;92.20;;;;;;5095812;28;20238;-90
2023/08/20 01:12:43;;;;;;;29.10;26.27;;;16.70;92.10;;;;;;5098303;28;20454;-90
2023/08/20 01:15:13;;;;;;;48.13;27.60;;;16.70;92.10;;;;;;5098528;28;20648;-90
2023/08/20 01:17:42;;;;;;;149.93;33.85;;;16.70;92.10;;;;;;5098588;28;20162;-90
2023/08/20 01:20:11;;;;;;;189.63;30.67;;;16.70;92.10;;;;;;5098980;28;20666;-90
2023/08/20 01:22:52;;;;;;;147.48;29.75;;;16.60;92.10;;;;;;5099183;28;20723;-90
2023/08/20 01:25:42;;;;;;;81.55;28.23;;;16.50;92.30;;;;;;5098595;28;20240;-90
2023/08/20 01:28:29;;;;;;;50.15;27.80;;;16.40;92.40;;;;;;5098201;28;20549;-90
2023/08/20 01:30:56;;;;;;;82.60;26.10;;;16.50;92.50;;;;;;5099345;28;20519;-91
2023/08/20 01:33:24;;;;;;;119.00;27.40;;;16.50;92.50;;;;;;5098983;28;20171;-90
2023/08/20 01:35:50;;;;;;;106.78;28.98;;;16.30;92.40;;;;;;5098013;28;20637;-90
2023/08/20 01:38:15;;;;;;;122.80;28.58;;;16.30;92.50;;;;;;5098416;28;20652;-90
2023/08/20 01:40:41;;;;;;;44.58;28.63;;;16.20;92.40;;;;;;5099477;28;20194;-91
2023/08/20 01:43:07;;;;;;;59.17;27.30;;;16.20;92.50;;;;;;5098876;28;20167;-90
2023/08/20 01:45:32;;;;;;;83.35;28.33;;;16.20;92.60;;;;;;5098167;28;20194;-90
2023/08/20 01:47:58;;;;;;;50.95;26.35;;;16.20;92.60;;;;;;5099248;28;20540;-90
2023/08/20 01:50:23;;;;;;;83.03;27.23;;;16.20;92.60;;;;;;5098193;28;20178;-90
2023/08/20 01:52:49;;;;;;;119.32;28.40;;;16.20;92.70;;;;;;5099463;28;20258;-90
2023/08/20 01:55:14;;;;;;;111.93;29.48;;;16.20;92.70;;;;;;5098227;28;20214;-90
2023/08/20 01:57:40;;;;;;;87.80;29.90;;;16.20;92.80;;;;;;5097637;28;20178;-91
2023/08/20 02:00:06;;;;;;;29.75;27.40;;;16.10;92.80;;;;;;5098754;28;20709;-90
2023/08/20 02:02:34;;;;;;;72.60;26.67;;;16.20;92.90;;;;;;5098102;28;20166;-90
2023/08/20 02:04:59;;;;;;;58.72;50.40;;;16.10;92.80;;;;;;5097156;28;20262;-91
2023/08/20 02:07:25;;;;;;;87.25;56.28;;;16.00;92.90;;;;;;5098168;28;20172;-90
2023/08/20 02:09:50;;;;;;;68.65;63.65;;;16.00;92.90;;;;;;5097720;28;20174;-90
2023/08/20 02:12:16;;;;;;;56.63;29.83;;;16.00;93.10;;;;;;5096359;28;20198;-89
2023/08/20 02:14:41;;;;;;;58.63;31.67;;;16.10;93.10;;;;;;5098669;28;20194;-90
2023/08/20 02:17:07;;;;;;;70.22;57.25;;;16.00;93.10;;;;;;5098657;28;20170;-90
2023/08/20 02:19:33;;;;;;;61.15;57.03;;;16.00;93.10;;;;;;5097701;28;20289;-90
2023/08/20 02:21:58;;;;;;;82.75;65.95;;;16.00;93.20;;;;;;5096610;28;20243;-90
2023/08/20 02:24:24;;;;;;;37.80;29.90;;;16.00;93.20;;;;;;5097628;28;20265;-90
2023/08/20 02:26:50;;;;;;;40.50;32.67;;;16.00;93.20;;;;;;5098649;28;20686;-90
2023/08/20 02:29:15;;;;;;;50.35;31.75;;;16.00;93.10;;;;;;5096526;28;20661;-90
2023/08/20 02:31:41;;;;;;;37.95;32.88;;;16.00;93.20;;;;;;5097241;28;20650;-90
2023/08/20 02:34:06;;;;;;;54.80;30.40;;;16.00;93.20;;;;;;5096426;28;20167;-90
2023/08/20 02:36:32;;;;;;;68.10;32.70;;;16.00;93.30;;;;;;5098228;28;20194;-90
2023/08/20 02:38:57;;;;;;;100.35;33.83;;;15.90;93.40;;;;;;5097511;28;20179;-90
2023/08/20 02:41:23;;;;;;;51.00;32.03;;;15.90;93.50;;;;;;5098162;28;20174;-90
2023/08/20 02:43:49;;;;;;;36.63;32.97;;;15.90;93.60;;;;;;5097688;28;20246;-90
2023/08/20 02:46:14;;;;;;;50.83;34.13;;;15.90;93.70;;;;;;5097384;28;20246;-90
2023/08/20 02:48:40;;;;;;;35.83;31.38;;;16.00;93.80;;;;;;5098071;28;20646;-90
2023/08/20 02:51:06;;;;;;;38.67;30.38;;;16.00;93.80;;;;;;5096720;28;20240;-90
2023/08/20 02:53:32;;;;;;;35.15;30.67;;;15.90;93.90;;;;;;5096395;28;20175;-90
2023/08/20 02:55:57;;;;;;;34.55;32.10;;;15.90;93.90;;;;;;5098326;28;20237;-91
2023/08/20 02:58:23;;;;;;;34.25;31.50;;;15.90;93.80;;;;;;5096809;28;20229;-90
2023/08/20 03:00:48;;;;;;;35.08;31.88;;;15.80;93.90;;;;;;5098530;28;20545;-90
2023/08/20 03:03:14;;;;;;;47.30;32.55;;;15.80;93.80;;;;;;5098436;28;20166;-90
2023/08/20 03:05:40;;;;;;;44.90;32.85;;;15.80;93.80;;;;;;5097741;28;20564;-91
2023/08/20 03:08:06;;;;;;;51.53;33.90;;;15.80;93.90;;;;;;5098054;28;20182;-90
2023/08/20 03:10:32;;;;;;;64.00;36.17;;;15.80;94.20;;;;;;5096902;28;20171;-90
2023/08/20 03:13:02;;;;;;;56.00;35.05;;;15.80;94.20;;;;;;5096870;28;20257;-90
2023/08/20 03:15:28;;;;;;;44.33;36.60;;;15.80;94.30;;;;;;5099280;28;20195;-90
2023/08/20 03:17:54;;;;;;;58.33;36.75;;;15.70;94.40;;;;;;5096924;28;20185;-90
2023/08/20 03:20:19;;;;;;;52.30;33.97;;;15.70;94.60;;;;;;5096489;28;20199;-90
2023/08/20 03:22:45;;;;;;;48.70;36.97;;;15.70;94.60;;;;;;5096104;28;20699;-90
2023/08/20 03:25:11;;;;;;;47.92;37.72;;;15.70;94.70;;;;;;5095801;28;20195;-90
2023/08/20 03:27:36;;;;;;;58.28;35.75;;;15.70;94.80;;;;;;5096315;28;20202;-90
2023/08/20 03:30:03;;;;;;;59.67;36.45;;;15.70;94.90;;;;;;5097259;28;20182;-90
2023/08/20 03:32:28;;;;;;;47.70;34.95;;;15.70;94.90;;;;;;5097199;28;20534;-90
2023/08/20 03:34:55;;;;;;;38.63;35.40;;;15.70;95.00;;;;;;5097031;28;20194;-90
2023/08/20 03:37:21;;;;;;;39.33;36.47;;;15.70;95.10;;;;;;5096289;28;20197;-90
2023/08/20 03:39:47;;;;;;;39.38;35.70;;;15.80;95.10;;;;;;5095652;28;20210;-90
2023/08/20 03:42:13;;;;;;;39.85;35.65;;;15.90;95.10;;;;;;5094851;28;20654;-90
2023/08/20 03:44:38;;;;;;;47.35;30.50;;;15.80;95.10;;;;;;5096185;28;20630;-90
2023/08/20 03:47:04;;;;;;;48.33;32.15;;;15.80;95.10;;;;;;5096808;28;20258;-90
2023/08/20 03:49:29;;;;;;;61.33;31.08;;;15.90;95.10;;;;;;5094968;28;20174;-90
2023/08/20 03:51:55;;;;;;;38.13;32.30;;;15.90;95.20;;;;;;5095622;28;20265;-90
2023/08/20 03:54:20;;;;;;;36.88;33.05;;;15.90;95.10;;;;;;5095724;28;20352;-91
2023/08/20 03:56:46;;;;;;;36.22;31.98;;;15.90;95.20;;;;;;5095082;28;20697;-90
2023/08/20 03:59:11;;;;;;;66.60;35.22;;;15.90;95.20;;;;;;5094998;28;20681;-90
2023/08/20 04:01:37;;;;;;;39.28;35.42;;;15.90;95.20;;;;;;5094795;28;20269;-90
2023/08/20 04:04:04;;;;;;;54.65;36.30;;;15.90;95.20;;;;;;5095444;28;20175;-89
2023/08/20 04:06:29;;;;;;;40.97;37.28;;;15.90;95.20;;;;;;5096409;28;20167;-90
2023/08/20 04:08:55;;;;;;;67.03;38.17;;;15.80;95.30;;;;;;5094904;28;20179;-90
2023/08/20 04:11:20;;;;;;;76.78;38.33;;;15.80;95.30;;;;;;5094668;28;20177;-90
2023/08/20 04:13:46;;;;;;;50.83;36.35;;;15.80;95.40;;;;;;5094778;28;20202;-90
2023/08/20 04:16:11;;;;;;;73.97;37.50;;;15.80;95.50;;;;;;5094956;28;20697;-90
2023/08/20 04:18:37;;;;;;;61.08;36.85;;;15.90;95.50;;;;;;5095615;28;20193;-91
2023/08/20 04:21:02;;;;;;;135.68;37.97;;;15.90;95.50;;;;;;5094596;28;20235;-90
2023/08/20 04:23:28;;;;;;;41.92;38.05;;;15.90;95.60;;;;;;5094515;28;20201;-90
2023/08/20 04:25:54;;;;;;;56.33;38.60;;;16.00;95.60;;;;;;5095466;28;20214;-90
2023/08/20 04:28:19;;;;;;;88.30;40.25;;;16.00;95.70;;;;;;5094478;28;20178;-90
2023/08/20 04:30:45;;;;;;;89.07;41.05;;;16.00;95.70;;;;;;5095750;28;20178;-91
2023/08/20 04:33:10;;;;;;;110.95;41.60;;;16.00;95.80;;;;;;5096336;28;20634;-91
2023/08/20 04:35:36;;;;;;;90.40;41.03;;;16.00;95.80;;;;;;5094742;28;20669;-90
2023/08/20 04:38:02;;;;;;;109.50;39.58;;;16.00;95.90;;;;;;5096036;28;20236;-90
2023/08/20 04:40:28;;;;;;;86.35;38.10;;;16.00;95.90;;;;;;5095391;28;20203;-90
2023/08/20 04:42:53;;;;;;;98.17;40.37;;;16.00;96.00;;;;;;5094508;28;20179;-90
2023/08/20 04:45:19;;;;;;;75.20;41.22;;;15.90;96.00;;;;;;5095936;28;20275;-90
2023/08/20 04:47:46;;;;;;;150.65;44.65;;;15.90;96.00;;;;;;5096750;28;20204;-90
2023/08/20 04:50:11;;;;;;;142.23;43.60;;;15.90;96.00;;;;;;5095748;28;20174;-90
2023/08/20 04:52:37;;;;;;;89.13;42.58;;;16.00;96.10;;;;;;5095653;28;20258;-90
2023/08/20 04:55:03;;;;;;;55.25;40.47;;;16.00;96.10;;;;;;5096217;28;20214;-90
2023/08/20 04:57:29;;;;;;;101.22;33.97;;;16.00;96.10;;;;;;5094044;28;20285;-90
2023/08/20 04:59:54;;;;;;;67.10;33.72;;;16.00;96.20;;;;;;5094993;28;20575;-90
2023/08/20 05:02:20;;;;;;;75.30;35.00;;;15.90;96.20;;;;;;5094013;28;20171;-90
2023/08/20 05:04:45;;;;;;;78.03;37.20;;;16.00;96.30;;;;;;5093680;28;20285;-90
2023/08/20 05:07:11;;;;;;;95.82;41.70;;;16.00;96.20;;;;;;5094580;28;20635;-90
2023/08/20 05:09:37;;;;;;;87.90;42.35;;;15.90;96.30;;;;;;5094015;28;20185;-90
2023/08/20 05:12:03;;;;;;;48.53;42.00;;;15.80;96.30;;;;;;5095168;28;20175;-90
2023/08/20 05:14:30;;;;;;;45.85;42.05;;;15.90;96.30;;;;;;5094429;28;20187;-90
2023/08/20 05:16:55;;;;;;;65.75;42.53;;;15.90;96.30;;;;;;5095324;28;20171;-90
2023/08/20 05:19:21;;;;;;;46.53;42.22;;;16.00;96.40;;;;;;5093221;28;20205;-91
2023/08/20 05:21:47;;;;;;;51.47;43.78;;;16.10;96.40;;;;;;5093778;28;20178;-90
2023/08/20 05:24:13;;;;;;;78.80;45.83;;;16.10;96.40;;;;;;5094652;28;20186;-90
2023/08/20 05:26:38;;;;;;;101.40;43.75;;;16.20;96.40;;;;;;5094035;28;20215;-90
2023/08/20 05:29:04;;;;;;;67.30;43.30;;;16.10;96.50;;;;;;5093119;28;20190;-90
2023/08/20 05:31:29;;;;;;;95.97;45.20;;;16.20;96.50;;;;;;5094221;28;20193;-90
2023/08/20 05:33:55;;;;;;;68.93;38.78;;;16.20;96.60;;;;;;5093674;28;20171;-90
2023/08/20 05:36:20;;;;;;;75.57;35.40;;;16.20;96.60;;;;;;5094152;28;20582;-90
2023/08/20 05:38:46;;;;;;;122.15;36.72;;;16.20;96.70;;;;;;5095097;28;20182;-90
2023/08/20 05:41:11;;;;;;;126.55;36.30;;;16.30;96.70;;;;;;5094841;28;20257;-90
2023/08/20 05:43:37;;;;;;;147.73;39.30;;;16.30;96.70;;;;;;5093695;28;20179;-90
2023/08/20 05:46:03;;;;;;;84.72;37.78;;;16.30;96.70;;;;;;5094782;28;20215;-90
2023/08/20 05:48:28;;;;;;;157.55;42.58;;;16.30;96.80;;;;;;5093621;28;20668;-91
2023/08/20 05:50:54;;;;;;;103.88;35.88;;;16.30;96.80;;;;;;5094255;28;20244;-90
2023/08/20 05:53:20;;;;;;;119.30;36.88;;;16.40;96.90;;;;;;5094285;28;20167;-90
2023/08/20 05:55:46;;;;;;;111.50;35.47;;;16.40;96.90;;;;;;5095607;28;20218;-90
2023/08/20 05:58:11;;;;;;;106.32;37.92;;;16.50;96.90;;;;;;5096571;28;20170;-90
2023/08/20 06:00:37;;;;;;;77.95;38.80;;;16.60;97.00;;;;;;5098774;28;20190;-90
2023/08/20 06:03:02;;;;;;;60.17;38.53;;;16.70;97.00;;;;;;5097909;28;20185;-90
2023/08/20 06:05:28;;;;;;;87.47;37.85;;;16.70;97.00;;;;;;5099062;28;20190;-90
2023/08/20 06:07:54;;;;;;;51.45;39.00;;;16.70;97.00;;;;;;5100307;28;20171;-91
2023/08/20 06:10:19;;;;;;;79.85;37.45;;;16.80;97.00;;;;;;5097882;28;20261;-90
2023/08/20 06:12:45;;;;;;;65.43;36.30;;;16.80;97.00;;;;;;5099839;28;20616;-91
2023/08/20 06:15:10;;;;;;;75.28;37.33;;;16.70;97.00;;;;;;5097726;28;20263;-90
2023/08/20 06:17:36;;;;;;;47.50;37.30;;;16.80;97.10;;;;;;5099593;28;20584;-90
2023/08/20 06:20:01;;;;;;;57.20;38.15;;;16.80;97.10;;;;;;5099178;28;20673;-90
2023/08/20 06:22:27;;;;;;;54.50;37.72;;;16.80;97.10;;;;;;5099321;28;20174;-90
2023/08/20 06:24:52;;;;;;;53.72;37.92;;;16.90;97.10;;;;;;5100254;28;20195;-90
2023/08/20 06:27:18;;;;;;;68.32;39.97;;;17.00;97.10;;;;;;5100012;28;20540;-90
2023/08/20 06:29:43;;;;;;;57.05;39.75;;;16.80;97.10;;;;;;5097179;28;20171;-89
2023/08/20 06:32:09;;;;;;;56.30;40.50;;;16.70;97.10;;;;;;5098424;28;20175;-90
2023/08/20 06:34:36;;;;;;;51.22;41.28;;;16.80;97.20;;;;;;5099523;28;20187;-91
2023/08/20 06:37:01;;;;;;;57.70;41.55;;;17.00;97.20;;;;;;5101629;28;20244;-90
2023/08/20 06:39:27;;;;;;;59.08;41.67;;;17.00;97.20;;;;;;5099897;28;20677;-90
2023/08/20 06:41:53;;;;;;;67.82;42.92;;;17.00;97.30;;;;;;5100097;28;20610;-90
2023/08/20 06:44:18;;;;;;;72.13;45.25;;;17.20;97.30;;;;;;5099006;28;20174;-90
2023/08/20 06:46:44;;;;;;;63.70;45.80;;;17.30;97.30;;;;;;5099858;28;20171;-91
2023/08/20 06:49:09;;;;;;;71.57;49.17;;;17.30;97.30;;;;;;5100031;28;20182;-91
2023/08/20 06:51:35;;;;;;;71.72;48.20;;;17.30;97.30;;;;;;5099854;28;20182;-91
2023/08/20 06:54:01;;;;;;;74.00;51.20;;;17.50;97.40;;;;;;5099945;28;20186;-91
2023/08/20 06:56:26;;;;;;;69.30;50.65;;;17.50;97.30;;;;;;5098060;28;20661;-91
2023/08/20 06:58:52;;;;;;;74.78;51.83;;;17.50;97.30;;;;;;5098523;28;20175;-91
2023/08/20 07:01:17;;;;;;;74.38;52.33;;;17.50;97.30;;;;;;5099956;28;20198;-92
2023/08/20 07:03:44;;;;;;;78.80;52.70;;;17.70;97.40;;;;;;5098484;28;20270;-91
2023/08/20 07:06:10;;;;;;;79.13;52.55;;;17.90;97.40;;;;;;5098901;28;20186;-91
2023/08/20 07:08:39;;;;;;;75.90;54.92;;;17.80;97.30;;;;;;5097935;28;20174;-91
2023/08/20 07:11:04;;;;;;;86.38;75.10;;;17.70;97.20;;;;;;5097670;28;20299;-91
2023/08/20 07:13:30;;;;;;;85.70;75.72;;;18.00;97.30;;;;;;5099659;28;20213;-91
2023/08/20 07:15:55;;;;;;;68.82;54.15;;;18.20;97.30;;;;;;5098687;28;20292;-90
2023/08/20 07:18:21;;;;;;;73.25;57.75;;;17.80;97.20;;;;;;5099645;28;20219;-91
2023/08/20 07:20:47;;;;;;;73.10;57.00;;;17.70;97.10;;;;;;5098483;28;20247;-91
2023/08/20 07:23:12;;;;;;;92.88;83.60;;;17.80;97.20;;;;;;5098854;28;20244;-91
2023/08/20 07:25:40;;;;;;;94.45;84.97;;;17.90;97.20;;;;;;5098892;28;20192;-91
2023/08/20 07:28:08;;;;;;;71.35;63.55;;;18.00;97.20;;;;;;5098219;28;20259;-90
2023/08/20 07:30:35;;;;;;;73.30;64.18;;;18.10;97.10;;;;;;5098186;28;20179;-91
2023/08/20 07:33:01;;;;;;;73.10;63.90;;;18.30;97.10;;;;;;5098973;28;20239;-91
2023/08/20 07:35:27;;;;;;;71.55;64.18;;;18.50;97.10;;;;;;5097595;28;20259;-91
2023/08/20 07:37:53;;;;;;;70.70;63.60;;;18.20;96.80;;;;;;5098478;28;20183;-91
2023/08/20 07:40:18;;;;;;;69.93;63.10;;;18.30;96.90;;;;;;5098538;28;20198;-91
2023/08/20 07:42:44;;;;;;;73.00;65.65;;;18.30;96.80;;;;;;5098260;28;20202;-91
2023/08/20 07:45:10;;;;;;;67.13;61.30;;;18.00;96.60;;;;;;5097373;28;20563;-91
2023/08/20 07:47:37;;;;;;;67.70;60.50;;;18.20;96.70;;;;;;5097921;28;20658;-91
2023/08/20 07:50:04;;;;;;;62.25;56.42;;;18.10;96.40;;;;;;5098849;28;20178;-91
2023/08/20 07:52:30;;;;;;;63.10;57.13;;;18.30;96.50;;;;;;5098429;28;20167;-91
2023/08/20 07:54:56;;;;;;;58.22;53.15;;;18.50;96.50;;;;;;5098043;28;20325;-91
2023/08/20 07:57:23;;;;;;;55.90;50.53;;;18.50;96.30;;;;;;5097375;28;20178;-91
2023/08/20 07:59:48;;;;;;;54.65;49.45;;;18.50;95.80;;;;;;5097386;28;20688;-91
2023/08/20 08:02:14;;;;;;;46.95;42.42;;;18.70;95.50;;;;;;5098691;28;20175;-91
2023/08/20 08:04:40;;;;;;;50.70;46.47;;;18.70;95.10;;;;;;5096847;28;20190;-91
2023/08/20 08:07:05;;;;;;;46.95;42.67;;;18.90;94.80;;;;;;5097441;28;20171;-91
2023/08/20 08:09:31;;;;;;;47.63;42.88;;;19.10;94.80;;;;;;5095447;28;20178;-91
2023/08/20 08:11:58;;;;;;;44.90;40.47;;;19.00;94.00;;;;;;5095426;28;20221;-91
2023/08/20 08:14:24;;;;;;;43.20;38.97;;;19.10;93.50;;;;;;5096096;28;20247;-91
2023/08/20 08:16:50;;;;;;;43.00;38.85;;;19.20;93.10;;;;;;5096624;28;20163;-91
2023/08/20 08:19:17;;;;;;;42.38;38.30;;;19.20;92.70;;;;;;5096385;28;20553;-91
2023/08/20 08:21:43;;;;;;;38.92;35.58;;;19.50;93.10;;;;;;5095093;28;20174;-91
2023/08/20 08:24:10;;;;;;;37.85;34.30;;;19.60;92.60;;;;;;5097020;28;20245;-90
2023/08/20 08:26:36;;;;;;;38.67;34.63;;;19.50;91.60;;;;;;5098719;28;20630;-90
2023/08/20 08:29:03;;;;;;;38.20;34.55;;;19.70;91.40;;;;;;5098261;28;20186;-92
2023/08/20 08:31:28;;;;;;;38.45;34.92;;;19.90;91.60;;;;;;5095201;28;20175;-91
2023/08/20 08:33:54;;;;;;;35.35;32.00;;;19.70;91.00;;;;;;5095791;28;20178;-91
2023/08/20 08:36:19;;;;;;;52.72;48.75;;;19.90;90.00;;;;;;5096886;28;20202;-90
2023/08/20 08:38:45;;;;;;;54.80;50.45;;;20.00;89.80;;;;;;5098022;28;20258;-91
2023/08/20 08:41:12;;;;;;;31.88;28.70;;;20.20;90.00;;;;;;5097849;28;20242;-91
2023/08/20 08:43:41;;;;;;;29.17;26.58;;;20.20;88.10;;;;;;5095477;28;20173;-90
2023/08/20 08:46:11;;;;;;;30.08;27.50;;;20.40;88.10;;;;;;5094085;28;20211;-90
2023/08/20 08:48:36;;;;;;;29.58;26.95;;;20.50;87.50;;;;;;5094595;28;20174;-91
2023/08/20 08:51:02;;;;;;;28.75;25.95;;;20.70;88.20;;;;;;5094914;28;20186;-90
2023/08/20 08:53:30;;;;;;;28.90;26.02;;;20.60;86.20;;;;;;5095930;28;20229;-91
2023/08/20 08:55:56;;;;;;;30.13;26.95;;;20.80;86.50;;;;;;5094773;28;20228;-91
2023/08/20 08:58:21;;;;;;;28.08;25.50;;;21.00;86.30;;;;;;5093836;28;20650;-91
2023/08/20 09:00:48;;;;;;;27.98;24.98;;;21.10;85.50;;;;;;5095002;28;20199;-91
2023/08/20 09:03:14;;;;;;;27.27;24.77;;;21.10;83.40;;;;;;5095491;28;20170;-92
2023/08/20 09:05:57;;;;;;;25.55;23.38;;;21.20;84.10;;;;;;5094982;28;20237;-92
2023/08/20 09:08:29;;;;;;;25.27;23.08;;;21.20;84.40;;;;;;5094058;28;20216;-91
2023/08/20 09:10:56;;;;;;;26.58;24.10;;;21.50;85.10;;;;;;5094689;28;20235;-91
2023/08/20 09:13:32;;;;;;;27.00;24.67;;;21.50;82.80;;;;;;5094440;28;20171;-91
2023/08/20 09:15:58;;;;;;;27.40;24.83;;;21.50;83.10;;;;;;5093032;28;20216;-91
2023/08/20 09:18:23;;;;;;;26.17;23.90;;;21.60;83.30;;;;;;5094296;28;20257;-90
2023/08/20 09:20:49;;;;;;;26.63;24.30;;;21.50;82.30;;;;;;5092818;28;20203;-90
2023/08/20 09:23:15;;;;;;;47.83;44.05;;;21.70;82.60;;;;;;5092853;28;20174;-90
2023/08/20 09:25:42;;;;;;;47.45;44.00;;;21.80;82.30;;;;;;5092290;28;20610;-89
2023/08/20 09:28:08;;;;;;;47.95;44.33;;;21.80;81.20;;;;;;5092575;28;20171;-90
2023/08/20 09:30:34;;;;;;;26.48;23.95;;;21.80;80.10;;;;;;5095811;28;20190;-90
2023/08/20 09:33:18;;;;;;;26.50;24.10;;;21.90;80.50;;;;;;5097473;28;20171;-91
2023/08/20 09:35:51;;;;;;;27.52;24.75;;;22.00;81.20;;;;;;5097953;28;20742;-90
2023/08/20 09:38:23;;;;;;;26.67;24.25;;;22.10;79.70;;;;;;5095872;28;20198;-90
2023/08/20 09:40:56;;;;;;;27.75;24.27;;;22.10;79.20;;;;;;5097221;28;20214;-90
2023/08/20 09:43:28;;;;;;;26.98;24.52;;;22.40;81.70;;;;;;5096819;28;20228;-90
2023/08/20 09:45:55;;;;;;;43.47;39.97;;;22.40;79.30;;;;;;5096911;28;20191;-90
2023/08/20 09:48:21;;;;;;;47.90;44.08;;;22.70;78.20;;;;;;5096647;28;20162;-90
2023/08/20 09:50:52;;;;;;;28.08;25.38;;;22.60;76.90;;;;;;5095357;28;20717;-90
2023/08/20 09:53:35;;;;;;;27.55;24.85;;;22.50;77.90;;;;;;5095698;28;20178;-89
2023/08/20 09:56:27;;;;;;;26.95;24.50;;;22.70;78.20;;;;;;5095690;28;20707;-90
2023/08/20 09:58:54;;;;;;;27.83;24.95;;;22.80;76.70;;;;;;5095233;28;20655;-90
2023/08/20 10:01:20;;;;;;;26.98;24.70;;;22.90;76.60;;;;;;5095222;28;20175;-90
2023/08/20 10:03:45;;;;;;;27.58;24.65;;;23.00;76.20;;;;;;5095571;28;20661;-90
2023/08/20 10:06:11;;;;;;;26.27;23.55;;;23.10;77.50;;;;;;5095130;28;20198;-90
2023/08/20 10:08:38;;;;;;;26.85;24.60;;;23.10;77.20;;;;;;5096364;28;20163;-90
2023/08/20 10:11:03;;;;;;;26.55;24.38;;;23.00;75.10;;;;;;5096272;28;20606;-89
2023/08/20 10:13:29;;;;;;;27.35;24.85;;;23.10;74.50;;;;;;5096264;28;20171;-89
2023/08/20 10:15:55;;;;;;;27.40;24.65;;;23.20;75.60;;;;;;5095123;28;20226;-89
2023/08/20 10:18:22;;;;;;;26.70;24.13;;;23.20;75.90;;;;;;5095941;28;20524;-89
2023/08/20 10:21:10;;;;;;;25.88;23.73;;;23.50;75.20;;;;;;5096010;28;20575;-89
2023/08/20 10:23:42;;;;;;;27.02;24.58;;;23.70;75.20;;;;;;5095819;28;20676;-89
2023/08/20 10:26:09;;;;;;;26.65;24.05;;;23.50;74.30;;;;;;5096589;28;20186;-89
2023/08/20 10:28:35;;;;;;;27.02;24.58;;;23.90;75.80;;;;;;5095043;28;20170;-89
2023/08/20 10:31:15;;;;;;;25.90;23.60;;;23.90;73.70;;;;;;5096249;28;20197;-89
2023/08/20 10:33:47;;;;;;;26.30;24.08;;;24.00;72.90;;;;;;5096476;28;20703;-89
2023/08/20 10:36:27;;;;;;;26.13;23.80;;;24.00;73.60;;;;;;5095005;28;20206;-90
2023/08/20 10:38:56;;;;;;;24.38;22.05;;;24.20;72.30;;;;;;5095915;28;20193;-90
2023/08/20 10:41:26;;;;;;;25.75;23.58;;;24.30;71.70;;;;;;5096033;28;20170;-89
2023/08/20 10:43:53;;;;;;;26.33;24.13;;;24.40;71.60;;;;;;5094786;28;20178;-90
2023/08/20 10:46:19;;;;;;;24.67;22.70;;;24.00;70.60;;;;;;5095012;28;20191;-89
2023/08/20 10:48:59;;;;;;;24.55;22.35;;;24.20;69.20;;;;;;5094575;28;20167;-89
2023/08/20 10:51:40;;;;;;;23.77;21.55;;;24.00;67.10;;;;;;5094514;28;20171;-89
2023/08/20 10:54:10;;;;;;;23.55;21.60;;;24.30;68.90;;;;;;5094628;28;20242;-90
2023/08/20 10:56:47;;;;;;;23.08;20.73;;;24.30;70.00;;;;;;5094302;28;20590;-90
2023/08/20 10:59:31;;;;;;;21.92;19.83;;;24.60;68.40;;;;;;5095532;28;20190;-89
2023/08/20 11:01:58;;;;;;;23.38;21.33;;;24.60;69.40;;;;;;5094472;28;20162;-90
2023/08/20 11:04:27;;;;;;;21.95;20.25;;;24.50;67.60;;;;;;5094436;28;20186;-89
2023/08/20 11:06:55;;;;;;;22.98;20.90;;;24.70;67.30;;;;;;5095403;28;20171;-89
2023/08/20 11:09:22;;;;;;;24.05;21.80;;;24.90;66.00;;;;;;5094158;28;20175;-89
2023/08/20 11:11:48;;;;;;;23.58;21.45;;;24.90;64.70;;;;;;5094152;28;20186;-89
2023/08/20 11:14:14;;;;;;;24.73;22.63;;;25.10;66.30;;;;;;5094776;28;20630;-89
2023/08/20 11:16:41;;;;;;;24.35;22.40;;;24.90;64.10;;;;;;5095153;28;20178;-89
2023/08/20 11:19:09;;;;;;;22.73;20.92;;;25.40;65.20;;;;;;5095282;28;20210;-89
2023/08/20 11:21:39;;;;;;;22.60;20.70;;;25.30;63.10;;;;;;5094226;28;20646;-90
2023/08/20 11:24:06;;;;;;;22.77;20.80;;;25.20;62.70;;;;;;5093727;28;20171;-89
2023/08/20 11:26:32;;;;;;;22.58;20.35;;;25.10;61.90;;;;;;5094466;28;20171;-89
2023/08/20 11:28:57;;;;;;;22.92;20.85;;;25.00;63.00;;;;;;5094919;28;20201;-89
2023/08/20 11:31:23;;;;;;;20.90;19.40;;;25.20;61.30;;;;;;5093659;28;20556;-89
2023/08/20 11:33:52;;;;;;;21.85;19.75;;;24.90;61.80;;;;;;5094658;28;20162;-89
2023/08/20 11:36:20;;;;;;;21.52;19.70;;;25.10;62.00;;;;;;5093357;28;20255;-89
2023/08/20 11:38:55;;;;;;;22.30;20.20;;;25.30;62.60;;;;;;5094514;28;20171;-89
2023/08/20 11:41:22;;;;;;;22.33;20.48;;;25.50;63.30;;;;;;5093358;28;20683;-89
2023/08/20 11:43:48;;;;;;;21.40;19.73;;;25.70;62.30;;;;;;5094598;28;20643;-89
2023/08/20 11:46:22;;;;;;;21.85;19.83;;;25.70;60.80;;;;;;5093334;28;20202;-90
2023/08/20 11:49:10;;;;;;;22.00;19.98;;;25.70;59.70;;;;;;5094007;28;20163;-89
2023/08/20 11:51:37;;;;;;;21.55;19.70;;;25.50;61.50;;;;;;5094220;28;20251;-89
2023/08/20 11:54:05;;;;;;;21.77;19.98;;;25.60;61.50;;;;;;5094480;28;20284;-89
2023/08/20 11:56:33;;;;;;;20.85;19.20;;;25.70;60.50;;;;;;5092398;28;20189;-89
2023/08/20 11:59:00;;;;;;;20.65;18.88;;;26.20;58.00;;;;;;5092906;28;20186;-89
2023/08/20 12:01:29;;;;;;;20.83;19.05;;;25.80;57.70;;;;;;5094204;28;20634;-89
2023/08/20 12:04:06;;;;;;;22.30;20.38;;;25.90;58.10;;;;;;5092938;28;20174;-89
2023/08/20 12:06:34;;;;;;;30.88;28.30;;;26.30;58.90;;;;;;5093434;28;20169;-89
2023/08/20 12:09:01;;;;;;;31.08;28.88;;;26.20;58.50;;;;;;5092732;28;20177;-89
2023/08/20 12:11:28;;;;;;;31.35;29.05;;;26.00;59.20;;;;;;5092863;28;20547;-89
2023/08/20 12:13:54;;;;;;;21.05;19.13;;;25.90;58.40;;;;;;5094062;28;20173;-89
2023/08/20 12:16:22;;;;;;;20.55;18.83;;;25.90;58.50;;;;;;5094167;28;20194;-89
2023/08/20 12:18:47;;;;;;;20.80;18.90;;;25.90;60.50;;;;;;5093543;28;20253;-89
2023/08/20 12:21:13;;;;;;;20.55;18.73;;;26.20;59.60;;;;;;5093049;28;20301;-89
2023/08/20 12:23:39;;;;;;;20.25;18.52;;;26.00;60.50;;;;;;5092613;28;20170;-89
2023/08/20 12:26:05;;;;;;;19.92;18.27;;;26.00;58.70;;;;;;5094269;28;20274;-89